Time;durP1;ratioP1;P1;durP2;ratioP2;P2;SDS_P1;SDS_P2;PMS_P1;PMS_P2;Temp;Humidity;BMP_temperature;BMP_pressure;BME280_temperature;BME280_humidity;BME280_pressure;Samples;Min_cycle;Max_cycle;Signal;HPM_P1;HPM_P2
2021/11/01 00:00:40;;;;;;;4.85;1.95;;;;;;;;;;5028941;28;20529;-80
2021/11/01 00:03:06;;;;;;;4.13;2.22;;;;;;;;;;5040428;28;20040;-82
2021/11/01 00:05:33;;;;;;;7.55;2.47;;;;;;;;;;5040214;28;20029;-82
2021/11/01 00:07:59;;;;;;;5.68;2.40;;;;;;;;;;5039163;28;20040;-83
2021/11/01 00:10:25;;;;;;;4.88;2.80;;;;;;;;;;5038224;28;20030;-83
2021/11/01 00:12:51;;;;;;;4.03;2.60;;;;;;;;;;5040653;28;20386;-82
2021/11/01 00:15:17;;;;;;;4.75;2.85;;;;;;;;;;5037818;28;20025;-83
2021/11/01 00:17:43;;;;;;;4.63;2.88;;;;;;;;;;5039234;28;20053;-83
2021/11/01 00:20:10;;;;;;;4.32;2.83;;;;;;;;;;5038714;28;20033;-82
2021/11/01 00:22:36;;;;;;;7.55;3.05;;;;;;;;;;5039396;28;20104;-83
2021/11/01 00:25:03;;;;;;;4.22;2.70;;;;;;;;;;5038726;28;20144;-81
2021/11/01 00:27:29;;;;;;;4.97;2.58;;;;;;;;;;5038467;28;20037;-83
2021/11/01 00:29:55;;;;;;;5.68;3.20;;;;;;;;;;5038117;28;20025;-82
2021/11/01 00:32:22;;;;;;;6.22;3.42;;;;;;;;;;5037760;28;20117;-83
2021/11/01 00:34:48;;;;;;;4.15;2.90;;;;;;;;;;5037255;28;20033;-83
2021/11/01 00:37:14;;;;;;;7.05;2.97;;;;;;;;;;5038269;28;20049;-83
2021/11/01 00:39:40;;;;;;;7.93;3.50;;;;;;;;;;5038182;28;20378;-83
2021/11/01 00:42:06;;;;;;;6.03;3.47;;;;;;;;;;5038840;28;20026;-82
2021/11/01 00:44:32;;;;;;;4.75;3.20;;;;;;;;;;5038741;28;20052;-82
2021/11/01 00:46:59;;;;;;;5.93;3.10;;;;;;;;;;5036677;28;20037;-82
2021/11/01 00:49:26;;;;;;;4.45;2.65;;;;;;;;;;5037620;28;20036;-82
2021/11/01 00:51:54;;;;;;;4.85;2.65;;;;;;;;;;5038354;28;20037;-82
2021/11/01 00:54:20;;;;;;;5.72;2.05;;;;;;;;;;5036275;28;20036;-82
2021/11/01 00:56:46;;;;;;;3.72;1.90;;;;;;;;;;5037928;28;20028;-82
2021/11/01 00:59:12;;;;;;;3.15;1.65;;;;;;;;;;5036635;28;20034;-82
2021/11/01 01:01:39;;;;;;;6.88;1.75;;;;;;;;;;5038214;28;20036;-81
2021/11/01 01:04:05;;;;;;;5.97;1.58;;;;;;;;;;5037730;28;20032;-81
2021/11/01 01:06:31;;;;;;;3.50;1.70;;;;;;;;;;5037364;28;20117;-81
2021/11/01 01:08:58;;;;;;;3.72;1.73;;;;;;;;;;5037382;28;20520;-81
2021/11/01 01:11:24;;;;;;;4.28;1.20;;;;;;;;;;5037142;28;20030;-82
2021/11/01 01:13:52;;;;;;;3.58;1.30;;;;;;;;;;5019892;28;20030;-82
2021/11/01 01:18:45;;;;;;;5.05;1.45;;;;;;;;;;5037520;28;20034;-82
2021/11/01 01:23:56;;;;;;;7.13;1.38;;;;;;;;;;5037970;28;20045;-83
2021/11/01 01:26:22;;;;;;;5.63;1.00;;;;;;;;;;5036638;28;20029;-82
2021/11/01 01:28:48;;;;;;;6.50;1.67;;;;;;;;;;5036409;28;20537;-82
2021/11/01 01:31:14;;;;;;;2.80;0.80;;;;;;;;;;5037745;28;20041;-81
2021/11/01 01:33:41;;;;;;;3.28;0.70;;;;;;;;;;5038721;28;20100;-81
2021/11/01 01:36:07;;;;;;;4.90;0.75;;;;;;;;;;5037538;28;20021;-81
2021/11/01 01:38:33;;;;;;;3.90;0.70;;;;;;;;;;5038526;28;20076;-82
2021/11/01 01:40:59;;;;;;;6.88;0.90;;;;;;;;;;5043027;28;20033;-80
2021/11/01 01:43:25;;;;;;;4.40;0.95;;;;;;;;;;5049414;28;20048;-81
2021/11/01 01:45:51;;;;;;;4.00;0.82;;;;;;;;;;5049289;28;20025;-81
2021/11/01 01:48:19;;;;;;;4.05;0.90;;;;;;;;;;5048081;28;20172;-83
2021/11/01 01:50:45;;;;;;;3.20;0.90;;;;;;;;;;5029732;28;20053;-84
2021/11/01 01:53:12;;;;;;;5.68;0.80;;;;;;;;;;5040536;28;20289;-81
2021/11/01 01:55:38;;;;;;;4.45;1.08;;;;;;;;;;5058673;28;20071;-82
2021/11/01 01:58:04;;;;;;;3.85;0.63;;;;;;;;;;5045186;28;20105;-81
2021/11/01 02:02:57;;;;;;;5.63;1.00;;;;;;;;;;5040943;28;20087;-83
2021/11/01 02:05:23;;;;;;;4.47;0.70;;;;;;;;;;5037348;28;20033;-83
2021/11/01 02:07:59;;;;;;;5.07;1.08;;;;;;;;;;5036362;28;20038;-83
2021/11/01 02:10:34;;;;;;;3.80;0.60;;;;;;;;;;5035163;28;20021;-83
2021/11/01 02:13:06;;;;;;;6.38;0.93;;;;;;;;;;5038252;28;20017;-82
2021/11/01 02:15:38;;;;;;;2.73;0.83;;;;;;;;;;5037260;28;20101;-82
2021/11/01 02:18:06;;;;;;;9.13;2.05;;;;;;;;;;5036231;28;20379;-82
2021/11/01 02:20:50;;;;;;;4.45;0.80;;;;;;;;;;5036694;28;20395;-83
2021/11/01 02:23:19;;;;;;;7.22;1.05;;;;;;;;;;5038028;28;20030;-82
2021/11/01 02:25:46;;;;;;;5.97;0.60;;;;;;;;;;5038165;28;20398;-82
2021/11/01 02:28:15;;;;;;;11.93;0.90;;;;;;;;;;5038239;28;20040;-82
2021/11/01 02:30:41;;;;;;;4.82;0.75;;;;;;;;;;5037189;28;20083;-82
2021/11/01 02:33:08;;;;;;;7.18;0.82;;;;;;;;;;5037396;28;20017;-82
2021/11/01 02:35:34;;;;;;;5.97;0.70;;;;;;;;;;5037549;28;20047;-83
2021/11/01 02:38:02;;;;;;;6.38;1.00;;;;;;;;;;5036457;28;20032;-83
2021/11/01 02:40:29;;;;;;;8.82;1.00;;;;;;;;;;5035559;28;20031;-82
2021/11/01 02:42:56;;;;;;;12.98;1.05;;;;;;;;;;5036119;28;20079;-82
2021/11/01 02:45:22;;;;;;;3.17;0.98;;;;;;;;;;5035556;28;20029;-82
2021/11/01 02:47:48;;;;;;;7.50;0.82;;;;;;;;;;5036108;28;20041;-82
2021/11/01 02:50:15;;;;;;;5.85;0.80;;;;;;;;;;5034289;28;20072;-82
2021/11/01 02:52:41;;;;;;;5.47;1.20;;;;;;;;;;5051084;28;20025;-81
2021/11/01 02:55:10;;;;;;;10.80;1.63;;;;;;;;;;5053902;28;20044;-82
2021/11/01 02:57:36;;;;;;;6.75;1.00;;;;;;;;;;5058936;28;20047;-81
2021/11/01 03:00:03;;;;;;;5.28;0.80;;;;;;;;;;5041836;28;20029;-82
2021/11/01 03:02:29;;;;;;;10.18;1.00;;;;;;;;;;5040894;28;20612;-82
2021/11/01 03:04:55;;;;;;;4.75;0.80;;;;;;;;;;5041216;28;20025;-82
2021/11/01 03:07:22;;;;;;;8.45;0.70;;;;;;;;;;5041636;28;20037;-82
2021/11/01 03:09:49;;;;;;;3.50;0.60;;;;;;;;;;5039941;28;20022;-84
2021/11/01 03:12:17;;;;;;;6.60;0.70;;;;;;;;;;5040808;28;20025;-82
2021/11/01 03:14:47;;;;;;;9.88;0.90;;;;;;;;;;5040426;28;20051;-82
2021/11/01 03:17:15;;;;;;;5.72;1.13;;;;;;;;;;5022609;28;20025;-81
2021/11/01 03:19:43;;;;;;;9.93;1.10;;;;;;;;;;5039907;28;20493;-83
2021/11/01 03:22:09;;;;;;;7.30;1.00;;;;;;;;;;5021330;28;20048;-82
2021/11/01 03:24:36;;;;;;;6.97;0.82;;;;;;;;;;5027295;28;20079;-83
2021/11/01 03:27:04;;;;;;;6.57;1.05;;;;;;;;;;5057297;28;20025;-82
2021/11/01 03:29:30;;;;;;;3.40;0.68;;;;;;;;;;5041913;28;20160;-83
2021/11/01 03:31:57;;;;;;;8.13;1.00;;;;;;;;;;5041632;28;20036;-83
2021/11/01 03:34:24;;;;;;;5.10;0.82;;;;;;;;;;5041447;28;20018;-83
2021/11/01 03:36:50;;;;;;;6.28;0.60;;;;;;;;;;5042807;28;20018;-82
2021/11/01 03:39:17;;;;;;;4.07;0.80;;;;;;;;;;5043191;28;20028;-80
2021/11/01 03:41:44;;;;;;;5.43;1.00;;;;;;;;;;5042015;28;20454;-82
2021/11/01 03:44:16;;;;;;;5.13;0.85;;;;;;;;;;5042201;28;20022;-83
2021/11/01 03:46:45;;;;;;;;;;;;;;;;;;5043661;28;20124;-83
2021/11/01 03:49:12;;;;;;;6.88;1.05;;;;;;;;;;5046520;22;20381;-84
2021/11/01 03:51:44;;;;;;;8.43;1.02;;;;;;;;;;5001573;28;20474;-83
2021/11/01 03:54:12;;;;;;;5.68;0.88;;;;;;;;;;5015709;28;20030;-84
2021/11/01 03:56:39;;;;;;;7.88;1.08;;;;;;;;;;5020374;28;20029;-83
2021/11/01 03:59:05;;;;;;;6.28;1.35;;;;;;;;;;5022637;28;20022;-83
2021/11/01 04:01:35;;;;;;;3.97;0.68;;;;;;;;;;5024499;28;20029;-82
2021/11/01 04:04:01;;;;;;;5.15;0.77;;;;;;;;;;5031544;28;20022;-82
2021/11/01 04:06:27;;;;;;;4.05;0.60;;;;;;;;;;5031431;28;20026;-82
2021/11/01 04:08:56;;;;;;;4.07;0.70;;;;;;;;;;5033849;28;20058;-81
2021/11/01 04:11:22;;;;;;;8.13;0.88;;;;;;;;;;5023661;28;20061;-83
2021/11/01 04:13:51;;;;;;;6.95;1.25;;;;;;;;;;5019531;28;20368;-83
2021/11/01 04:16:21;;;;;;;5.50;0.68;;;;;;;;;;5019900;28;20033;-83
2021/11/01 04:19:03;;;;;;;2.70;0.50;;;;;;;;;;5021114;28;20026;-81
2021/11/01 04:21:29;;;;;;;5.60;0.70;;;;;;;;;;5017736;28;20053;-82
2021/11/01 04:23:59;;;;;;;9.38;0.77;;;;;;;;;;5018074;28;20021;-83
2021/11/01 04:26:25;;;;;;;3.35;0.70;;;;;;;;;;5017432;28;20034;-83
2021/11/01 04:28:51;;;;;;;5.10;0.80;;;;;;;;;;5018603;28;20049;-83
2021/11/01 04:31:32;;;;;;;5.38;1.00;;;;;;;;;;5018097;28;20037;-83
2021/11/01 04:34:02;;;;;;;7.55;0.95;;;;;;;;;;5007478;28;20026;-83
2021/11/01 04:36:29;;;;;;;3.17;0.60;;;;;;;;;;5020079;28;20113;-83
2021/11/01 04:53:04;;;;;;;6.72;1.00;;;;;;;;;;5012745;28;20530;-81
2021/11/01 04:55:32;;;;;;;7.20;0.98;;;;;;;;;;5013603;28;20026;-80
2021/11/01 04:57:58;;;;;;;9.77;1.20;;;;;;;;;;5015300;28;20487;-81
2021/11/01 05:00:24;;;;;;;7.05;1.08;;;;;;;;;;5015390;28;20025;-81
2021/11/01 05:03:00;;;;;;;4.18;0.80;;;;;;;;;;5014269;28;20776;-81
2021/11/01 05:05:26;;;;;;;6.47;1.10;;;;;;;;;;5021802;28;20010;-85
2021/11/01 05:07:54;;;;;;;6.38;1.00;;;;;;;;;;5032043;28;20033;-79
2021/11/01 05:10:40;;;;;;;10.90;1.45;;;;;;;;;;5013598;28;20033;-80
2021/11/01 05:13:11;;;;;;;8.23;1.25;;;;;;;;;;5014299;28;20447;-80
2021/11/01 05:16:29;;;;;;;11.88;1.15;;;;;;;;;;5015508;28;20026;-80
2021/11/01 05:18:33;;;;;;;7.72;1.00;;;;;;;;;;5024144;28;20042;-82
2021/11/01 05:21:20;;;;;;;3.97;0.80;;;;;;;;;;5015815;28;20049;-79
2021/11/01 05:23:53;;;;;;;5.10;0.60;;;;;;;;;;5014968;28;20487;-81
2021/11/01 05:26:29;;;;;;;5.85;1.02;;;;;;;;;;4993977;28;20415;-79
2021/11/01 05:29:00;;;;;;;3.42;0.73;;;;;;;;;;5009118;28;20052;-82
2021/11/01 05:31:27;;;;;;;4.47;0.70;;;;;;;;;;5014474;28;20018;-81
2021/11/01 05:34:08;;;;;;;6.32;0.90;;;;;;;;;;5014025;28;20024;-81
2021/11/01 05:36:35;;;;;;;5.65;0.98;;;;;;;;;;5013101;28;20022;-81
2021/11/01 05:39:01;;;;;;;3.70;0.60;;;;;;;;;;5014387;28;20022;-81
2021/11/01 05:41:27;;;;;;;6.97;0.80;;;;;;;;;;5014149;28;20076;-80
2021/11/01 05:43:53;;;;;;;1.73;0.57;;;;;;;;;;5014406;28;20030;-79
2021/11/01 05:46:20;;;;;;;8.65;0.77;;;;;;;;;;5014705;28;20053;-81
2021/11/01 05:48:51;;;;;;;3.28;0.40;;;;;;;;;;5012910;28;20022;-80
2021/11/01 05:51:19;;;;;;;7.53;0.82;;;;;;;;;;5005994;28;20040;-79
2021/11/01 05:53:49;;;;;;;2.38;0.38;;;;;;;;;;5010902;28;20077;-80
2021/11/01 05:56:23;;;;;;;5.28;0.73;;;;;;;;;;5009811;28;20030;-81
2021/11/01 06:04:29;;;;;;;3.30;0.55;;;;;;;;;;5012815;28;20473;-82
2021/11/01 06:14:38;;;;;;;2.60;0.52;;;;;;;;;;5010855;28;20096;-83
2021/11/01 06:17:05;;;;;;;2.90;0.57;;;;;;;;;;5010682;28;20014;-80
2021/11/01 06:19:31;;;;;;;7.07;0.63;;;;;;;;;;5008963;28;20109;-81
2021/11/01 06:21:57;;;;;;;3.65;0.43;;;;;;;;;;5010573;28;20048;-80
2021/11/01 06:27:12;;;;;;;3.92;0.65;;;;;;;;;;5010922;28;20052;-81
2021/11/01 06:30:16;;;;;;;2.92;0.50;;;;;;;;;;5009240;28;20101;-79
2021/11/01 06:32:35;;;;;;;2.95;0.80;;;;;;;;;;5009593;28;20045;-80
2021/11/01 06:56:03;;;;;;;6.13;3.53;;;;;;;;;;5010510;28;20062;-79
2021/11/01 07:14:55;;;;;;;2.25;0.50;;;;;;;;;;5014115;28;20079;-79
2021/11/01 07:20:05;;;;;;;5.65;0.60;;;;;;;;;;4993498;28;20102;-79
2021/11/01 07:25:35;;;;;;;4.10;0.98;;;;;;;;;;5014133;28;20152;-81
2021/11/01 08:28:12;;;;;;;2.03;0.95;;;;;;;;;;5012450;28;20537;-79
2021/11/01 09:02:53;;;;;;;4.30;0.40;;;;;;;;;;5013360;28;20075;-78
2021/11/01 09:10:54;;;;;;;2.60;0.77;;;;;;;;;;5018317;28;20040;-79
2021/11/01 09:18:53;;;;;;;1.40;0.50;;;;;;;;;;5008197;28;20045;-80
2021/11/01 09:21:42;;;;;;;1.88;0.40;;;;;;;;;;5014388;28;20026;-80
2021/11/01 09:26:43;;;;;;;5.28;0.70;;;;;;;;;;5023043;28;20098;-79
2021/11/01 09:42:55;;;;;;;3.33;0.70;;;;;;;;;;5020503;28;20022;-78
2021/11/01 09:45:23;;;;;;;3.38;0.50;;;;;;;;;;5014635;28;20022;-78
2021/11/01 09:47:50;;;;;;;1.52;0.38;;;;;;;;;;5014611;28;20026;-78
2021/11/01 09:50:18;;;;;;;3.92;0.50;;;;;;;;;;5012425;28;20572;-81
2021/11/01 09:52:45;;;;;;;0.95;0.38;;;;;;;;;;5017119;28;20204;-81
2021/11/01 10:00:40;;;;;;;1.85;0.50;;;;;;;;;;5016708;28;20111;-80
2021/11/01 10:03:06;;;;;;;2.92;0.50;;;;;;;;;;5016371;28;20026;-80
2021/11/01 10:05:35;;;;;;;3.78;0.68;;;;;;;;;;5015970;28;20372;-80
2021/11/01 10:08:01;;;;;;;2.65;0.63;;;;;;;;;;5017137;28;20025;-79
2021/11/01 10:10:30;;;;;;;1.42;0.40;;;;;;;;;;5015960;28;20049;-81
2021/11/01 10:12:56;;;;;;;1.13;0.38;;;;;;;;;;5016295;28;20117;-80
2021/11/01 10:18:10;;;;;;;4.78;0.60;;;;;;;;;;5014803;28;20146;-81
2021/11/01 10:20:40;;;;;;;2.65;0.50;;;;;;;;;;5014897;28;20103;-79
2021/11/01 10:23:20;;;;;;;2.33;0.47;;;;;;;;;;5017395;28;20380;-82
2021/11/01 10:25:46;;;;;;;1.92;0.80;;;;;;;;;;5018451;28;20026;-82
2021/11/01 10:28:12;;;;;;;3.45;0.85;;;;;;;;;;5016475;28;20224;-80
2021/11/01 10:30:39;;;;;;;1.60;0.40;;;;;;;;;;5017479;28;20499;-81
2021/11/01 10:33:06;;;;;;;1.60;0.45;;;;;;;;;;5012712;28;20030;-82
2021/11/01 10:35:39;;;;;;;2.53;0.50;;;;;;;;;;5005328;28;20084;-81
2021/11/01 10:38:11;;;;;;;;;;;;;;;;;;5000302;28;20037;-79
2021/11/01 10:40:46;;;;;;;1.80;0.40;;;;;;;;;;4997444;28;19910;-80
2021/11/01 11:10:51;;;;;;;3.28;0.70;;;;;;;;;;4996950;28;20091;-80
2021/11/01 11:13:15;;;;;;;2.50;0.60;;;;;;;;;;4996565;28;20036;-79
2021/11/01 11:15:42;;;;;;;2.33;0.30;;;;;;;;;;5029046;28;20113;-80
2021/11/01 11:38:44;;;;;;;2.47;0.98;;;;;;;;;;5000715;28;20042;-80
2021/11/01 11:47:09;;;;;;;5.88;0.70;;;;;;;;;;5020395;28;20045;-80
2021/11/01 11:49:35;;;;;;;;;;;;;;;;;;5019830;28;20037;-80
2021/11/01 11:52:12;;;;;;;1.40;0.50;;;;;;;;;;5020561;28;19980;-79
2021/11/01 11:54:44;;;;;;;1.55;0.77;;;;;;;;;;5016784;28;20105;-86
2021/11/01 11:57:20;;;;;;;1.83;0.80;;;;;;;;;;5017223;28;20022;-80
2021/11/01 11:59:47;;;;;;;1.38;0.60;;;;;;;;;;5003864;28;20029;-80
2021/11/01 12:02:14;;;;;;;4.38;0.98;;;;;;;;;;5005110;28;20031;-79
2021/11/01 12:04:48;;;;;;;2.08;0.65;;;;;;;;;;5010536;28;20107;-80
2021/11/01 12:07:16;;;;;;;2.88;0.57;;;;;;;;;;5005913;28;20037;-80
2021/11/01 12:09:58;;;;;;;1.45;0.50;;;;;;;;;;5013382;28;20018;-80
2021/11/01 12:17:29;;;;;;;1.25;0.40;;;;;;;;;;5019584;28;20123;-80
2021/11/01 12:20:06;;;;;;;1.55;0.35;;;;;;;;;;5004679;28;20030;-79
2021/11/01 12:22:34;;;;;;;0.98;0.43;;;;;;;;;;5004962;28;20113;-79
2021/11/01 12:25:02;;;;;;;4.05;0.50;;;;;;;;;;5004826;28;20025;-79
2021/11/01 12:27:30;;;;;;;1.15;0.30;;;;;;;;;;4998261;28;20030;-80
2021/11/01 12:29:56;;;;;;;3.08;0.50;;;;;;;;;;5008274;28;20114;-80
2021/11/01 12:32:23;;;;;;;2.25;0.55;;;;;;;;;;5014180;28;20053;-80
2021/11/01 12:34:54;;;;;;;2.05;0.65;;;;;;;;;;5007808;28;20030;-81
2021/11/01 12:37:29;;;;;;;2.38;0.80;;;;;;;;;;5013668;28;20088;-80
2021/11/01 12:40:06;;;;;;;1.77;0.40;;;;;;;;;;5015334;28;20485;-78
2021/11/01 12:58:56;;;;;;;2.72;0.50;;;;;;;;;;5014903;28;20091;-79
2021/11/01 13:01:23;;;;;;;3.03;0.55;;;;;;;;;;5006839;28;20054;-80
2021/11/01 13:03:54;;;;;;;2.47;0.65;;;;;;;;;;5004268;28;20033;-81
2021/11/01 13:06:32;;;;;;;1.13;0.35;;;;;;;;;;5000969;28;20488;-80
2021/11/01 13:09:04;;;;;;;2.70;0.50;;;;;;;;;;5003063;28;20030;-80
2021/11/01 13:14:54;;;;;;;2.33;0.60;;;;;;;;;;5017528;28;20026;-80
2021/11/01 13:18:05;;;;;;;3.28;0.80;;;;;;;;;;4999790;28;20019;-79
2021/11/01 13:20:21;;;;;;;3.25;0.57;;;;;;;;;;4998106;28;20058;-80
2021/11/01 13:22:50;;;;;;;1.85;0.70;;;;;;;;;;4997974;28;20018;-79
2021/11/01 13:28:02;;;;;;;1.75;0.40;;;;;;;;;;5003132;28;20183;-79
2021/11/01 13:38:40;;;;;;;3.80;0.50;;;;;;;;;;5017776;28;20034;-78
2021/11/01 13:41:15;;;;;;;1.52;0.50;;;;;;;;;;5020946;28;20100;-80
2021/11/01 13:43:43;;;;;;;1.65;0.50;;;;;;;;;;5030012;28;20074;-79
2021/11/01 13:46:11;;;;;;;2.50;0.70;;;;;;;;;;5027935;28;20029;-80
2021/11/01 13:48:38;;;;;;;2.28;0.75;;;;;;;;;;5015973;28;20029;-80
2021/11/01 13:51:10;;;;;;;3.45;0.60;;;;;;;;;;5012473;28;20042;-79
2021/11/01 13:53:45;;;;;;;1.75;0.55;;;;;;;;;;5022137;28;20029;-80
2021/11/01 13:56:48;;;;;;;1.50;0.65;;;;;;;;;;5002341;28;20026;-80
2021/11/01 13:59:25;;;;;;;1.98;0.45;;;;;;;;;;5008172;28;20034;-81
2021/11/01 14:02:16;;;;;;;4.55;0.45;;;;;;;;;;5017522;28;20451;-81
2021/11/01 14:13:06;;;;;;;3.28;0.70;;;;;;;;;;4996753;28;20117;-79
2021/11/01 14:18:40;;;;;;;2.30;0.80;;;;;;;;;;5019914;28;20034;-80
2021/11/01 15:15:27;;;;;;;7.22;1.42;;;;;;;;;;5016564;28;20037;-80
2021/11/01 15:23:14;;;;;;;5.22;2.42;;;;;;;;;;5016336;28;20083;-81
2021/11/01 15:32:20;;;;;;;3.63;0.80;;;;;;;;;;4996140;28;20041;-81
2021/11/01 15:34:28;;;;;;;3.67;0.75;;;;;;;;;;5002650;28;20086;-81
2021/11/01 15:39:33;;;;;;;4.35;1.30;;;;;;;;;;5017174;28;20640;-81
2021/11/01 16:20:03;;;;;;;7.63;1.20;;;;;;;;;;5025285;28;20038;-79
2021/11/01 16:22:29;;;;;;;5.35;0.95;;;;;;;;;;5025495;28;20045;-81
2021/11/01 16:24:57;;;;;;;9.52;1.30;;;;;;;;;;5025939;28;20045;-81
2021/11/01 16:27:24;;;;;;;7.95;1.25;;;;;;;;;;5023844;28;20044;-79
2021/11/01 16:29:59;;;;;;;6.57;1.40;;;;;;;;;;5024132;28;20033;-81
2021/11/01 16:32:36;;;;;;;5.50;1.10;;;;;;;;;;5025957;28;20056;-80
2021/11/01 16:35:05;;;;;;;9.82;1.27;;;;;;;;;;5027876;28;20041;-79
2021/11/01 16:37:42;;;;;;;6.38;1.30;;;;;;;;;;5024201;28;20033;-81
2021/11/01 16:40:10;;;;;;;5.53;1.25;;;;;;;;;;5021321;28;20080;-80
2021/11/01 16:42:38;;;;;;;7.45;1.90;;;;;;;;;;5021081;28;20029;-81
2021/11/01 16:45:09;;;;;;;7.45;1.48;;;;;;;;;;5020467;28;20376;-81
2021/11/01 16:47:36;;;;;;;9.98;2.05;;;;;;;;;;5022082;28;20032;-81
2021/11/01 16:50:05;;;;;;;6.10;1.27;;;;;;;;;;5020075;28;20022;-80
2021/11/01 16:52:31;;;;;;;4.28;1.23;;;;;;;;;;5016644;28;20061;-80
2021/11/01 16:55:00;;;;;;;6.40;1.45;;;;;;;;;;5015293;28;20026;-79
2021/11/01 16:57:33;;;;;;;4.43;1.60;;;;;;;;;;5015718;28;20018;-80
2021/11/01 17:02:50;;;;;;;11.55;2.28;;;;;;;;;;5016891;28;20076;-79
2021/11/01 17:06:05;;;;;;;7.90;2.70;;;;;;;;;;5018138;28;20501;-79
2021/11/01 17:24:17;;;;;;;7.28;2.20;;;;;;;;;;5013463;28;20052;-78
2021/11/01 17:35:09;;;;;;;19.50;8.93;;;;;;;;;;5011614;28;20030;-78
2021/11/01 18:36:14;;;;;;;26.85;14.88;;;;;;;;;;5017157;28;20245;-81
2021/11/01 18:41:25;;;;;;;14.02;7.95;;;;;;;;;;4984294;28;20034;-80
2021/11/01 18:51:44;;;;;;;4.95;2.60;;;;;;;;;;5014906;28;20080;-80
2021/11/01 18:54:22;;;;;;;12.38;4.45;;;;;;;;;;4997350;28;20042;-80
2021/11/01 18:56:49;;;;;;;13.95;5.50;;;;;;;;;;5000397;28;20022;-79
2021/11/01 18:59:19;;;;;;;10.13;4.32;;;;;;;;;;5014264;28;20036;-80
2021/11/01 19:01:49;;;;;;;10.68;5.88;;;;;;;;;;5014421;28;20351;-80
2021/11/01 19:04:23;;;;;;;9.95;4.72;;;;;;;;;;4995551;28;20030;-80
2021/11/01 19:06:58;;;;;;;15.82;6.22;;;;;;;;;;5025889;28;20380;-81
2021/11/01 20:04:25;;;;;;;4.90;2.45;;;;;;;;;;5024744;28;20394;-82
2021/11/01 20:12:22;;;;;;;12.98;8.00;;;;;;;;;;5016280;28;20157;-82
2021/11/01 21:27:08;;;;;;;9.25;6.22;;;;;;;;;;5003361;28;20199;-79
2021/11/01 21:29:35;;;;;;;10.88;6.30;;;;;;;;;;5014754;28;20034;-79
2021/11/01 21:32:02;;;;;;;14.63;7.82;;;;;;;;;;5014166;28;20168;-78
2021/11/01 21:35:15;;;;;;;12.27;7.20;;;;;;;;;;5013488;28;20054;-79
2021/11/01 21:37:14;;;;;;;16.75;8.95;;;;;;;;;;5015096;28;20034;-78
2021/11/01 21:39:40;;;;;;;10.88;6.75;;;;;;;;;;5019886;28;20029;-79
2021/11/01 21:42:06;;;;;;;11.00;7.70;;;;;;;;;;5024299;28;20098;-79
2021/11/01 21:44:36;;;;;;;10.32;6.40;;;;;;;;;;5017496;28;20148;-79
2021/11/01 21:47:02;;;;;;;9.10;6.97;;;;;;;;;;5012368;28;20033;-80
2021/11/01 21:49:28;;;;;;;12.18;7.88;;;;;;;;;;5009293;28;20041;-79
2021/11/01 21:51:55;;;;;;;12.10;8.02;;;;;;;;;;5000889;28;20082;-79
2021/11/01 21:56:53;;;;;;;11.63;5.60;;;;;;;;;;5004130;28;20411;-78
2021/11/01 22:10:04;;;;;;;7.68;4.20;;;;;;;;;;4995886;28;20119;-81
2021/11/01 22:18:10;;;;;;;15.50;7.80;;;;;;;;;;4995850;28;20084;-80
2021/11/01 22:20:38;;;;;;;16.83;8.73;;;;;;;;;;4995309;28;20030;-80
2021/11/01 22:40:11;;;;;;;7.00;4.38;;;;;;;;;;4996067;28;20505;-80
2021/11/01 22:42:33;;;;;;;10.13;4.00;;;;;;;;;;4998301;28;20035;-80
2021/11/01 22:58:03;;;;;;;10.57;4.03;;;;;;;;;;4996549;28;20023;-80
2021/11/01 23:00:34;;;;;;;8.02;5.38;;;;;;;;;;5011775;28;20026;-80
2021/11/01 23:03:06;;;;;;;8.18;4.25;;;;;;;;;;4996183;28;20026;-80
2021/11/01 23:32:56;;;;;;;5.25;2.92;;;;;;;;;;5011472;28;20096;-79
2021/11/01 23:35:22;;;;;;;8.45;4.13;;;;;;;;;;5015207;28;20037;-80
2021/11/01 23:37:48;;;;;;;11.50;6.63;;;;;;;;;;5011220;28;20125;-80
2021/11/01 23:40:14;;;;;;;7.40;4.35;;;;;;;;;;5013681;28;20050;-80
2021/11/01 23:42:40;;;;;;;9.85;3.80;;;;;;;;;;4999221;28;20053;-80
2021/11/01 23:45:06;;;;;;;6.80;3.92;;;;;;;;;;4998823;28;20068;-80
2021/11/01 23:47:32;;;;;;;5.53;3.40;;;;;;;;;;5014194;28;20056;-80
2021/11/01 23:49:58;;;;;;;6.55;3.92;;;;;;;;;;4997725;28;20818;-80
2021/11/01 23:52:29;;;;;;;8.27;3.88;;;;;;;;;;4998956;28;20034;-79
2021/11/01 23:54:55;;;;;;;5.28;3.20;;;;;;;;;;4999385;28;20483;-80
2021/11/01 23:57:21;;;;;;;4.38;2.92;;;;;;;;;;4999783;28;20030;-80
2021/11/01 23:59:48;;;;;;;6.13;3.45;;;;;;;;;;5000982;28;20449;-80
